• Join FlightAware (Why Join?)
  • Login
  • US Flag 
06:08PM EDT


 

Airport Tracker/Info


-or-


 

Live Flight TrackerFlight Track Log ✈ BAW196 ✈ 30-Jul-2013 ✈ KIAH - EGLL / LHR

Flight Track Log - Related Links

Times and Time Zones

All times are in EDT time to prevent confusion due to time zone crossing. See the BAW196 flight status page for this flight to view local times or setup timezone preferences in your user account.

Time Position Orientation Groundspeed Altitude Reporting Facility
EDT Latitude Longitude Course Direction KTS MPH feet Rate Location/Type
10:05PM 29.9697 -95.3467 270° West 140 161 100  Level FlightAware ADS-B
10:06PM 29.9587 -95.3398 151° Southeast 167 192 700 2,520 Climbing FlightAware ADS-B
10:06PM 29.9516 -95.3370 161° South 166 191 1,200 2,220 Climbing FlightAware ADS-B
10:06PM 29.9469 -95.3370 180° South 172 198 1,300 660 Climbing FlightAware ADS-B
10:06PM 29.9442 -95.3377 193° South 177 204 1,300 840 Level FlightAware ADS-B
10:06PM 29.9411 -95.3392 203° Southwest 183 211 1,400 840 Climbing FlightAware ADS-B
10:06PM 29.9389 -95.3407 211° Southwest 187 215 1,400 840 Level FlightAware ADS-B
10:06PM 29.9362 -95.3433 220° Southwest 195 224 1,500 720 Climbing FlightAware ADS-B
10:06PM 29.9340 -95.3462 229° Southwest 202 232 1,500 840 Level FlightAware ADS-B
10:06PM 29.9324 -95.3489 236° Southwest 206 237 1,600 1,500 Climbing FlightAware ADS-B
10:06PM 29.9306 -95.3538 247° West 212 244 1,700 720 Climbing FlightAware ADS-B
10:06PM 29.9296 -95.3580 255° West 217 250 1,700 960 Level FlightAware ADS-B
10:06PM 29.9293 -95.3615 264° West 223 257 1,800 1,680 Climbing FlightAware ADS-B
10:07PM 29.9294 -95.3661 271° West 226 260 1,900 1,680 Climbing FlightAware ADS-B
10:07PM 29.9299 -95.3696 279° West 227 261 2,000 2,520 Climbing FlightAware ADS-B
10:07PM 29.9312 -95.3742 288° West 229 264 2,200 1,980 Climbing FlightAware ADS-B
10:07PM 29.9338 -95.3799 298° West 232 267 2,300 1,980 Climbing FlightAware ADS-B
10:07PM 29.9358 -95.3830 307° West 233 268 2,500 2,220 Climbing FlightAware ADS-B
10:07PM 29.9396 -95.3875 314° West 235 270 2,600 1,500 Climbing FlightAware ADS-B
10:07PM 29.9426 -95.3900 324° Northwest 238 274 2,700 1,680 Climbing FlightAware ADS-B
10:07PM 29.9456 -95.3920 330° Northwest 240 276 2,800 1,680 Climbing FlightAware ADS-B
10:07PM 29.9498 -95.3939 339° North 241 277 2,900 1,500 Climbing FlightAware ADS-B
10:07PM 29.9537 -95.3949 347° North 241 277 3,000 1,680 Climbing FlightAware ADS-B
10:07PM 29.9572 -95.3953 354° North 240 276 3,100 1,680 Climbing FlightAware ADS-B
10:07PM 29.9617 -95.3951 North 243 280 3,200 1,500 Climbing FlightAware ADS-B
10:07PM 29.9662 -95.3944 North 246 283 3,300 1,320 Climbing FlightAware ADS-B
10:07PM 29.9718 -95.3926 16° North 250 288 3,400 1,320 Climbing FlightAware ADS-B
10:07PM 29.9761 -95.3908 20° North 254 292 3,500 1,500 Climbing FlightAware ADS-B
10:08PM 29.9851 -95.3863 23° Northeast 260 299 3,700 420 Climbing FlightAware ADS-B
10:08PM 30.0380 -95.3589 24° Northeast 284 327 3,900 120 Climbing FlightAware ADS-B
10:09PM 30.0783 -95.3382 24° Northeast 297 342 3,900  Level FlightAware ADS-B
10:09PM 30.0948 -95.3296 24° Northeast 303 349 3,900  Level FlightAware ADS-B
10:09PM 30.0995 -95.3266 29° Northeast 304 350 3,900  Level FlightAware ADS-B
10:09PM 30.1124 -95.3168 35° Northeast 304 350 3,900  Level FlightAware ADS-B
10:10PM 30.1268 -95.3028 41° Northeast 303 349 3,900  Level FlightAware ADS-B
10:10PM 30.1426 -95.2858 43° Northeast 303 349 3,900 120 Level FlightAware ADS-B
10:10PM 30.1739 -95.2523 43° Northeast 304 350 4,000 1,620 Climbing FlightAware ADS-B
10:12PM 30.2577 -95.1624 43° Northeast 309 356 7,000 2,220 Climbing FlightAware ADS-B
10:12PM 30.2752 -95.1438 43° Northeast 311 358 7,600 2,280 Climbing FlightAware ADS-B
10:12PM 30.2910 -95.1270 43° Northeast 313 360 8,200 2,100 Climbing FlightAware ADS-B
10:12PM 30.3075 -95.1094 43° Northeast 315 362 8,700 2,100 Climbing FlightAware ADS-B
10:13PM 30.3307 -95.0845 43° Northeast 318 366 9,500 1,920 Climbing FlightAware ADS-B
10:14PM 30.3815 -95.0300 43° Northeast 327 376 10,900 1,860 Climbing FlightAware ADS-B
10:14PM 30.3965 -95.0145 42° Northeast 329 379 11,400 1,980 Climbing FlightAware ADS-B
10:15PM 30.4550 -94.9668 34° Northeast 331 381 12,900 1,500 Climbing FlightAware ADS-B
10:16PM 30.5354 -94.9057 33° Northeast 361 415 14,100 1,200 Climbing FlightAware ADS-B
10:16PM 30.5778 -94.8731 33° Northeast 369 425 14,800 1,380 Climbing FlightAware ADS-B
10:17PM 30.6678 -94.8039 33° Northeast 385 443 16,300 1,140 Climbing FlightAware ADS-B
10:18PM 30.7135 -94.7688 33° Northeast 400 460 16,600 840 Climbing FlightAware ADS-B
10:18PM 30.7634 -94.7303 34° Northeast 408 470 17,200 1,800 Climbing FlightAware ADS-B
10:19PM 30.8118 -94.6929 34° Northeast 397 457 18,500 1,980 Climbing FlightAware ADS-B
10:19PM 30.8591 -94.6564 34° Northeast 399 459 19,300 1,320 Climbing FlightAware ADS-B
10:20PM 30.9551 -94.5822 33° Northeast 410 472 20,600 1,140 Climbing FlightAware ADS-B
10:23PM 31.1827 -94.4053 34° Northeast 430 495 23,300 1,140 Climbing FlightAware ADS-B
10:24PM 31.2866 -94.3242 34° Northeast 432 497 24,500 1,080 Climbing FlightAware ADS-B
10:24PM 31.3554 -94.2703 34° Northeast 441 507 25,200 1,080 Climbing FlightAware ADS-B
10:25PM 31.4067 -94.2302 34° Northeast 442 509 25,800 1,200 Climbing FlightAware ADS-B
10:25PM 31.4582 -94.1899 34° Northeast 445 512 26,400 960 Climbing FlightAware ADS-B
10:27PM 31.6061 -94.0735 34° Northeast 449 517 27,700 900 Climbing FlightAware ADS-B
10:27PM 31.6715 -94.0220 34° Northeast 455 524 28,300 840 Climbing FlightAware ADS-B
10:28PM 31.7220 -93.9820 34° Northeast 460 529 28,700 540 Climbing FlightAware
10:29PM 31.7900 -93.9280 34° Northeast 460 529 29,000 180 Climbing FlightAware
10:29PM 31.8440 -93.8860 33° Northeast 460 529 29,000  Level FlightAware
10:30PM 31.8980 -93.8430 34° Northeast 460 529 29,000  Level FlightAware
10:30PM 31.9520 -93.8000 34° Northeast 460 529 29,000  Level FlightAware
10:31PM 32.0060 -93.7570 34° Northeast 460 529 29,000 1,860 Level FlightAware
10:32PM 32.1370 -93.6520 34° Northeast 473 544 31,800 1,860 Climbing FlightAware
10:32PM 32.1930 -93.6080 34° Northeast 473 544 31,800  Level FlightAware
10:33PM 32.2480 -93.5640 34° Northeast 473 544 31,800  Level FlightAware
10:34PM 32.3040 -93.5190 34° Northeast 473 544 31,800  Level FlightAware
10:34PM 32.3590 -93.4750 34° Northeast 473 544 31,800  Level FlightAware
10:35PM 32.4160 -93.4290 34° Northeast 473 544 31,800 1,740 Level FlightAware
10:35PM 32.5151 -93.3485 34° Northeast 34,800 2,640 Climbing FlightAware ADS-B
10:36PM 32.6070 -93.2750 34° Northeast 487 560 35,000 120 Climbing FlightAware
10:37PM 32.6640 -93.2290 34° Northeast 487 560 35,000  Level FlightAware
10:37PM 32.7220 -93.1830 34° Northeast 487 560 35,000  Level FlightAware
10:38PM 32.7790 -93.1370 34° Northeast 487 560 35,000  Level FlightAware
10:38PM 32.8360 -93.0910 34° Northeast 487 560 35,000  Level FlightAware
10:39PM 32.8930 -93.0450 34° Northeast 487 560 35,000  Level FlightAware
10:40PM 32.9530 -92.9970 34° Northeast 487 560 35,000  Level FlightAware
10:40PM 33.0140 -92.9480 34° Northeast 487 560 35,000  Level FlightAware
10:41PM 33.0710 -92.9020 34° Northeast 487 560 35,000  Level FlightAware
10:42PM 33.1370 -92.8490 34° Northeast 487 560 35,000  Level FlightAware
10:42PM 33.1950 -92.8030 34° Northeast 487 560 35,000  Level FlightAware
10:43PM 33.2530 -92.7550 35° Northeast 487 560 35,000  Level FlightAware
10:43PM 33.3110 -92.7090 34° Northeast 487 560 35,000  Level FlightAware
10:44PM 33.3680 -92.6630 34° Northeast 487 560 35,000  Level FlightAware
10:45PM 33.4250 -92.6170 34° Northeast 487 560 35,000  Level FlightAware
10:45PM 33.4790 -92.5730 34° Northeast 487 560 35,000  Level FlightAware
10:46PM 33.7211 -92.1953 34° Northeast 493 567 35,000  Level Memphis Center
10:47PM 33.8208 -92.0800 44° Northeast 493 567 35,000  Level Memphis Center
10:48PM 33.9203 -91.9642 44° Northeast 493 567 35,000  Level Memphis Center
10:49PM 34.0178 -91.8483 45° Northeast 488 562 35,000  Level Memphis Center
10:50PM 34.1025 -91.7319 49° Northeast 496 571 35,000  Level Memphis Center
10:51PM 34.2083 -91.6081 44° Northeast 496 571 35,000  Level Memphis Center
10:52PM 34.3053 -91.4911 45° Northeast 496 571 35,000  Level Memphis Center
10:53PM 34.4067 -91.3692 45° Northeast 496 571 35,000  Level Memphis Center
10:54PM 34.5033 -91.2519 45° Northeast 496 571 35,000  Level Memphis Center
10:55PM 34.6022 -91.1317 45° Northeast 501 577 35,000  Level Memphis Center
10:56PM 34.6989 -91.0089 46° Northeast 496 571 35,000  Level Memphis Center
10:57PM 34.7975 -90.8881 45° Northeast 501 577 35,000  Level Memphis Center
10:58PM 34.8942 -90.7672 46° Northeast 495 570 35,000  Level Memphis Center
10:59PM 34.9842 -90.6586 45° Northeast 500 575 35,000  Level Memphis Center
11:00PM 35.0822 -90.5347 46° Northeast 505 581 35,000  Level Memphis Center
11:01PM 35.1806 -90.4103 46° Northeast 500 575 35,000  Level Memphis Center
11:02PM 35.2806 -90.2858 45° Northeast 500 575 35,000  Level Memphis Center
11:03PM 35.3889 -90.1456 47° Northeast 505 581 35,000  Level Memphis Center
11:04PM 35.4867 -90.0206 46° Northeast 499 574 35,000  Level Memphis Center
11:05PM 35.5800 -89.8872 49° Northeast 504 580 35,000  Level Memphis Center
11:06PM 35.6711 -89.7464 51° Northeast 515 593 35,000  Level Memphis Center
11:07PM 35.7414 -89.6256 54° Northeast 503 579 35,000  Level Memphis Center
11:08PM 35.8344 -89.4864 50° Northeast 503 579 35,000  Level Memphis Center
11:14PM 36.3510 -88.6900 50° Northeast 526 605 35,000  Level FlightAware
11:15PM 36.4000 -88.6170 50° Northeast 526 605 35,000  Level FlightAware
11:15PM 36.4460 -88.5450 52° Northeast 526 605 35,000  Level FlightAware
11:16PM 36.5090 -88.4420 53° Northeast 526 605 35,000  Level FlightAware
11:16PM 36.5630 -88.3570 52° Northeast 526 605 35,000  Level FlightAware
11:17PM 36.6100 -88.2820 52° Northeast 525 604 35,000  Level FlightAware
11:17PM 36.6670 -88.1910 52° Northeast 526 605 35,000  Level FlightAware
11:18PM 36.7210 -88.1050 52° Northeast 527 606 35,000  Level FlightAware
11:19PM 36.7770 -88.0170 52° Northeast 528 608 35,000  Level FlightAware
11:19PM 36.8230 -87.9430 52° Northeast 527 606 35,000  Level FlightAware
11:19PM 36.8470 -87.9050 52° Northeast 526 605 35,000 180 Level FlightAware
11:21PM 36.9470 -87.7440 52° Northeast 525 604 35,400 780 Climbing FlightAware
11:21PM 37.0190 -87.6270 52° Northeast 520 598 36,600 1,380 Climbing FlightAware
11:22PM 37.0750 -87.5370 52° Northeast 519 597 37,000 300 Climbing FlightAware
11:23PM 37.1290 -87.4490 52° Northeast 519 597 37,000  Level FlightAware
11:23PM 37.1780 -87.3690 52° Northeast 517 595 37,000  Level FlightAware
11:24PM 37.2300 -87.2840 52° Northeast 517 595 37,000  Level FlightAware
11:24PM 37.2740 -87.2120 52° Northeast 518 596 37,000  Level FlightAware
11:25PM 37.3410 -87.1020 53° Northeast 521 600 37,000  Level FlightAware
11:26PM 37.4020 -87.0030 52° Northeast 523 602 37,000  Level FlightAware
11:26PM 37.4530 -86.9180 53° Northeast 524 603 37,000  Level FlightAware
11:27PM 37.5110 -86.8220 53° Northeast 524 603 37,000  Level FlightAware
11:28PM 37.5640 -86.7330 53° Northeast 526 605 37,000  Level FlightAware
11:28PM 37.6210 -86.6390 53° Northeast 526 605 37,000  Level FlightAware
11:29PM 37.6760 -86.5470 53° Northeast 526 605 37,000  Level FlightAware
11:30PM 37.7290 -86.4570 53° Northeast 524 603 37,000  Level FlightAware
11:30PM 37.7770 -86.3770 53° Northeast 521 600 37,000  Level FlightAware
11:31PM 37.8380 -86.2750 53° Northeast 519 597 37,000  Level FlightAware
11:31PM 37.8900 -86.1860 53° Northeast 519 597 37,000  Level FlightAware
11:32PM 37.9460 -86.0920 53° Northeast 519 597 37,000  Level FlightAware
11:33PM 38.0030 -85.9950 53° Northeast 520 598 37,000  Level FlightAware
11:33PM 38.0470 -85.9250 51° Northeast 519 597 37,000  Level FlightAware
11:34PM 38.0990 -85.8450 50° Northeast 520 598 37,000  Level FlightAware
11:34PM 38.1620 -85.7460 51° Northeast 521 600 37,000  Level FlightAware
11:35PM 38.2100 -85.6720 50° Northeast 521 600 37,000  Level FlightAware
11:36PM 38.2610 -85.5900 52° Northeast 521 600 37,000  Level FlightAware
11:36PM 38.3150 -85.5040 51° Northeast 522 601 37,000  Level FlightAware
11:37PM 38.3660 -85.4240 51° Northeast 523 602 37,000  Level FlightAware
11:37PM 38.4190 -85.3380 52° Northeast 525 604 37,000  Level FlightAware
11:38PM 38.4700 -85.2580 51° Northeast 525 604 37,000  Level FlightAware
11:39PM 38.5330 -85.1570 51° Northeast 527 606 37,000  Level FlightAware
11:39PM 38.5920 -85.0610 52° Northeast 528 608 37,000  Level FlightAware
11:39PM 38.6130 -85.0280 51° Northeast 528 608 37,000  Level FlightAware
11:40PM 38.6920 -84.9010 51° Northeast 529 609 37,000  Level FlightAware
11:41PM 38.7630 -84.7850 52° Northeast 529 609 37,000  Level FlightAware
11:41PM 38.7950 -84.7340 51° Northeast 530 610 37,000  Level FlightAware
11:42PM 38.8690 -84.6130 52° Northeast 529 609 37,000  Level FlightAware
11:43PM 38.9240 -84.5230 52° Northeast 528 608 37,000  Level FlightAware
11:43PM 38.9720 -84.4450 52° Northeast 527 606 37,000  Level FlightAware
11:44PM 39.0250 -84.3580 52° Northeast 526 605 37,000  Level FlightAware
11:45PM 39.0830 -84.2630 52° Northeast 525 604 37,000  Level FlightAware
11:45PM 39.1350 -84.1760 52° Northeast 526 605 37,000  Level FlightAware
11:46PM 39.1810 -84.1000 52° Northeast 526 605 37,000  Level FlightAware
11:46PM 39.2350 -84.0110 52° Northeast 527 606 37,000  Level FlightAware
11:47PM 39.2910 -83.9170 52° Northeast 528 608 37,000  Level FlightAware
11:47PM 39.3390 -83.8370 52° Northeast 528 608 37,000  Level FlightAware
11:48PM 39.4030 -83.7300 52° Northeast 529 609 37,000  Level FlightAware
11:49PM 39.4560 -83.6410 52° Northeast 529 609 37,000  Level FlightAware
11:49PM 39.5120 -83.5460 53° Northeast 530 610 37,000  Level FlightAware
11:50PM 39.5630 -83.4600 52° Northeast 529 609 37,000  Level FlightAware
11:50PM 39.6080 -83.3840 52° Northeast 530 610 37,000  Level FlightAware
11:51PM 39.6660 -83.2860 52° Northeast 530 610 37,000  Level FlightAware
11:52PM 39.7150 -83.2020 53° Northeast 531 611 37,000  Level FlightAware
11:52PM 39.7680 -83.1130 52° Northeast 531 611 37,000  Level FlightAware
11:53PM 39.8210 -83.0210 53° Northeast 532 612 37,000  Level FlightAware
11:53PM 39.8720 -82.9340 53° Northeast 533 613 37,000  Level FlightAware
11:54PM 39.9240 -82.8440 53° Northeast 533 613 37,000  Level FlightAware
11:55PM 39.9730 -82.7590 53° Northeast 535 616 37,000  Level FlightAware
11:55PM 40.0260 -82.6680 53° Northeast 537 618 37,000  Level FlightAware
11:56PM 40.0800 -82.5750 53° Northeast 538 619 37,000  Level FlightAware
11:56PM 40.1300 -82.4860 54° Northeast 538 619 37,000  Level FlightAware
11:57PM 40.1840 -82.3920 53° Northeast 536 617 37,000  Level FlightAware
11:58PM 40.2360 -82.3010 53° Northeast 536 617 37,000  Level FlightAware
11:58PM 40.2840 -82.2170 53° Northeast 537 618 37,000  Level FlightAware
11:59PM 40.3400 -82.1180 53° Northeast 537 618 37,000  Level FlightAware
11:59PM 40.3940 -82.0230 53° Northeast 537 618 37,000  Level FlightAware
12:00AM 40.4390 -81.9390 55° Northeast 536 617 37,000  Level FlightAware
12:00AM 40.4940 -81.8390 54° Northeast 536 617 37,000  Level FlightAware
12:01AM 40.5460 -81.7440 54° Northeast 536 617 37,000  Level FlightAware
12:02AM 40.5920 -81.6600 54° Northeast 536 617 37,000  Level FlightAware
12:02AM 40.6420 -81.5680 54° Northeast 534 615 37,000  Level FlightAware
12:03AM 40.6910 -81.4780 54° Northeast 530 610 37,000  Level FlightAware
12:03AM 40.7550 -81.3600 54° Northeast 524 603 37,000  Level FlightAware
12:04AM 40.8000 -81.2760 55° Northeast 522 601 37,000  Level FlightAware
12:05AM 40.8530 -81.1770 55° Northeast 522 601 37,000  Level FlightAware
12:05AM 40.8970 -81.0960 54° Northeast 521 600 37,000  Level FlightAware
12:06AM 40.9480 -81.0010 55° Northeast 521 600 37,000  Level FlightAware
12:06AM 41.0000 -80.9030 55° Northeast 521 600 37,000  Level FlightAware
12:07AM 41.0480 -80.8120 55° Northeast 521 600 37,000  Level FlightAware
12:08AM 41.0920 -80.7300 55° Northeast 521 600 37,000  Level FlightAware
12:08AM 41.1440 -80.6320 55° Northeast 522 601 37,000  Level FlightAware
12:09AM 41.1890 -80.5460 55° Northeast 522 601 37,000  Level FlightAware
12:09AM 41.2380 -80.4530 55° Northeast 523 602 37,000  Level FlightAware
12:10AM 41.2900 -80.3530 55° Northeast 524 603 37,000  Level FlightAware
12:10AM 41.3350 -80.2670 55° Northeast 525 604 37,000  Level FlightAware
12:11AM 41.3890 -80.1630 55° Northeast 527 606 37,000  Level FlightAware
12:12AM 41.4290 -80.0860 55° Northeast 527 606 37,000  Level FlightAware
12:12AM 41.4820 -79.9840 55° Northeast 527 606 37,000  Level FlightAware
12:13AM 41.5320 -79.8860 56° Northeast 525 604 37,000  Level FlightAware
12:14AM 41.5830 -79.7880 55° Northeast 525 604 37,000  Level FlightAware
12:14AM 41.6330 -79.6910 55° Northeast 525 604 37,000  Level FlightAware
12:15AM 41.6820 -79.5940 56° Northeast 524 603 37,000  Level FlightAware
12:15AM 41.7300 -79.5000 56° Northeast 525 604 37,000  Level FlightAware
12:16AM 41.7780 -79.4050 56° Northeast 527 606 37,000  Level FlightAware
12:17AM 41.8250 -79.3130 56° Northeast 527 606 37,000  Level FlightAware
12:17AM 41.8730 -79.2170 56° Northeast 528 608 37,000  Level FlightAware
12:18AM 41.9210 -79.1220 56° Northeast 528 608 37,000  Level FlightAware
12:18AM 41.9690 -79.0270 56° Northeast 529 609 37,000  Level FlightAware
12:19AM 42.0170 -78.9300 56° Northeast 530 610 37,000  Level FlightAware
12:20AM 42.0710 -78.8210 56° Northeast 529 609 37,000  Level FlightAware
12:20AM 42.1320 -78.6980 56° Northeast 529 609 37,000  Level FlightAware
12:21AM 42.1790 -78.6040 56° Northeast 530 610 37,000  Level FlightAware
12:21AM 42.2260 -78.5080 57° Northeast 530 610 37,000  Level FlightAware
12:22AM 42.2720 -78.4140 56° Northeast 530 610 37,000  Level FlightAware
12:23AM 42.3200 -78.3170 56° Northeast 530 610 37,000  Level FlightAware
12:23AM 42.3680 -78.2180 57° Northeast 529 609 37,000  Level FlightAware
12:24AM 42.4130 -78.1260 56° Northeast 529 609 37,000  Level FlightAware
12:24AM 42.4610 -78.0280 56° Northeast 529 609 37,000  Level FlightAware
12:25AM 42.5060 -77.9330 57° Northeast 526 605 37,000  Level FlightAware
12:26AM 42.5530 -77.8350 57° Northeast 524 603 37,000  Level FlightAware
12:26AM 42.6000 -77.7380 57° Northeast 522 601 37,000  Level FlightAware
12:27AM 42.6460 -77.6420 57° Northeast 522 601 37,000  Level FlightAware
12:27AM 42.6920 -77.5450 57° Northeast 522 601 37,000  Level FlightAware
12:28AM 42.7380 -77.4500 57° Northeast 524 603 37,000  Level FlightAware
12:28AM 42.7820 -77.3550 58° Northeast 523 602 37,000  Level FlightAware
12:29AM 42.8280 -77.2590 57° Northeast 522 601 37,000  Level FlightAware
12:30AM 42.8740 -77.1610 57° Northeast 522 601 37,000  Level FlightAware
12:30AM 42.9200 -77.0640 57° Northeast 522 601 37,000  Level FlightAware
12:31AM 42.9650 -76.9680 57° Northeast 525 604 37,000  Level FlightAware
12:31AM 43.0110 -76.8690 58° Northeast 525 604 37,000  Level FlightAware
12:32AM 43.0580 -76.7680 57° Northeast 525 604 37,000  Level FlightAware
12:33AM 43.1030 -76.6710 58° Northeast 527 606 37,000  Level FlightAware
12:33AM 43.1470 -76.5740 58° Northeast 524 603 37,000  Level FlightAware
12:34AM 43.1900 -76.4810 58° Northeast 523 602 37,000  Level FlightAware
12:34AM 43.2300 -76.3940 58° Northeast 521 600 37,000  Level FlightAware
12:35AM 43.2800 -76.2840 58° Northeast 518 596 37,000  Level FlightAware
12:35AM 43.3250 -76.1870 57° Northeast 516 594 37,000  Level FlightAware
12:36AM 43.3680 -76.0910 58° Northeast 512 589 37,000  Level FlightAware
12:37AM 43.4140 -75.9900 58° Northeast 510 587 37,000  Level FlightAware
12:37AM 43.4560 -75.8970 58° Northeast 507 583 37,000  Level FlightAware
12:38AM 43.4990 -75.8020 58° Northeast 506 582 37,000  Level FlightAware
12:38AM 43.5400 -75.7090 59° Northeast 506 582 37,000  Level FlightAware
12:39AM 43.5810 -75.6170 58° Northeast 506 582 37,000  Level FlightAware
12:40AM 43.6250 -75.5180 58° Northeast 509 586 37,000  Level FlightAware
12:40AM 43.6700 -75.4170 58° Northeast 512 589 37,000  Level FlightAware
12:41AM 43.7120 -75.3230 58° Northeast 512 589 37,000  Level FlightAware
12:41AM 43.7570 -75.2210 59° Northeast 508 585 37,000  Level FlightAware
12:42AM 43.8030 -75.1160 59° Northeast 506 582 37,000  Level FlightAware
12:43AM 43.8520 -75.0030 59° Northeast 503 579 37,000  Level FlightAware
12:43AM 43.8920 -74.9110 59° Northeast 502 578 37,000  Level FlightAware
12:44AM 43.9290 -74.8260 59° Northeast 502 578 37,000  Level FlightAware
12:44AM 43.9710 -74.7300 59° Northeast 503 579 37,000  Level FlightAware
12:45AM 44.0130 -74.6330 59° Northeast 503 579 37,000  Level FlightAware
12:46AM 44.0600 -74.5240 59° Northeast 504 580 37,000  Level FlightAware
12:46AM 44.1130 -74.4000 59° Northeast 502 578 37,000  Level FlightAware
12:47AM 44.1570 -74.2960 59° Northeast 502 578 37,000  Level FlightAware
12:47AM 44.1950 -74.2080 59° Northeast 501 577 37,000  Level FlightAware
12:48AM 44.2380 -74.1060 60° Northeast 504 580 37,000  Level FlightAware
12:48AM 44.2780 -74.0120 59° Northeast 505 581 37,000  Level FlightAware
12:49AM 44.3220 -73.9060 60° Northeast 505 581 37,000  Level FlightAware
12:50AM 44.3620 -73.8120 59° Northeast 502 578 37,000  Level FlightAware
12:50AM 44.4040 -73.7100 60° Northeast 500 575 37,000  Level FlightAware
12:51AM 44.4450 -73.6130 59° Northeast 502 578 37,000  Level FlightAware
12:51AM 44.4820 -73.5220 60° Northeast 504 580 37,000  Level FlightAware
12:52AM 44.5220 -73.4260 60° Northeast 507 583 37,000  Level FlightAware
12:52AM 44.5650 -73.3220 60° Northeast 507 583 37,000  Level FlightAware
12:53AM 44.6070 -73.2210 60° Northeast 507 583 37,000  Level FlightAware
12:54AM 44.6480 -73.1190 61° Northeast 509 586 37,000  Level FlightAware
12:54AM 44.6910 -73.0150 60° Northeast 507 583 37,000  Level FlightAware
12:55AM 44.7270 -72.9270 60° Northeast 507 583 37,000  Level FlightAware
12:55AM 44.7700 -72.8200 60° Northeast 509 586 37,000  Level FlightAware
12:56AM 44.8110 -72.7190 60° Northeast 510 587 37,000  Level FlightAware
12:57AM 44.8530 -72.6140 61° Northeast 512 589 37,000  Level FlightAware
12:57AM 44.8930 -72.5130 61° Northeast 510 587 37,000  Level FlightAware
12:58AM 44.9340 -72.4130 60° Northeast 510 587 37,000  Level FlightAware
12:58AM 44.9730 -72.3140 61° Northeast 514 592 37,000  Level FlightAware
12:59AM 45.0130 -72.2120 61° Northeast 516 594 37,000  Level FlightAware
12:59AM 45.0480 -72.1250 60° Northeast 518 596 37,000  Level FlightAware
01:00AM 45.0970 -72.0000 61° Northeast 523 602 37,000  Level FlightAware
01:01AM 45.1340 -71.9040 61° Northeast 524 603 37,000  Level FlightAware
01:01AM 45.1700 -71.8130 61° Northeast 526 605 37,000  Level FlightAware
01:02AM 45.2140 -71.7000 61° Northeast 525 604 37,000  Level FlightAware
01:03AM 45.2720 -71.5500 61° Northeast 526 605 37,000  Level FlightAware
01:03AM 45.3060 -71.4610 61° Northeast 526 605 37,000  Level FlightAware
01:04AM 45.3460 -71.3580 61° Northeast 523 602 37,000  Level FlightAware
01:04AM 45.3930 -71.2340 62° Northeast 519 597 37,000  Level FlightAware
01:05AM 45.4340 -71.1280 61° Northeast 517 595 37,000  Level FlightAware
01:05AM 45.4690 -71.0360 61° Northeast 516 594 37,000  Level FlightAware
01:06AM 45.5050 -70.9400 62° Northeast 517 595 37,000  Level FlightAware
01:07AM 45.5640 -70.7830 62° Northeast 517 595 37,000  Level FlightAware
01:07AM 45.6050 -70.6740 62° Northeast 515 593 37,000  Level FlightAware
01:08AM 45.6470 -70.5610 62° Northeast 515 593 37,000  Level FlightAware
01:09AM 45.6900 -70.4450 62° Northeast 513 590 37,000  Level FlightAware
01:09AM 45.7280 -70.3450 61° Northeast 514 592 37,000  Level FlightAware
01:10AM 45.7720 -70.2240 62° Northeast 517 595 37,000  Level FlightAware
01:11AM 45.8110 -70.1170 62° Northeast 521 600 37,000  Level FlightAware
01:11AM 45.8480 -70.0160 62° Northeast 519 597 37,000  Level FlightAware
01:12AM 45.8980 -69.8810 62° Northeast 518 596 37,000  Level FlightAware
01:12AM 45.9330 -69.7820 63° Northeast 517 595 37,000  Level FlightAware
01:13AM 45.9830 -69.6440 62° Northeast 517 595 37,000  Level FlightAware
01:14AM 45.9830 -69.6440 62° Northeast 515 593 37,000  Level FlightAware
01:14AM 46.0430 -69.4770 63° Northeast 515 593 37,000  Level FlightAware
01:15AM 46.1090 -69.2960 62° Northeast 514 592 37,000  Level FlightAware
01:16AM 46.0820 -69.3680 242° Southwest 519 597 37,000  Level FlightAware
01:18AM 46.2790 -68.8090 63° Northeast 525 604 37,000  Level FlightAware
01:18AM 46.3210 -68.6910 63° Northeast 525 604 37,000  Level FlightAware
01:19AM 46.3550 -68.5950 63° Northeast 525 604 37,000  Level FlightAware
01:19AM 46.3770 -68.5310 63° Northeast 525 604 37,000  Level FlightAware
01:20AM 46.4120 -68.4320 63° Northeast 525 604 37,000  Level FlightAware
01:21AM 46.4450 -68.3360 63° Northeast 525 604 37,000  Level FlightAware
01:21AM 46.4800 -68.2370 63° Northeast 525 604 37,000  Level FlightAware
01:22AM 46.5030 -68.1730 62° Northeast 525 604 37,000  Level FlightAware
01:22AM 46.5420 -68.0610 63° Northeast 525 604 37,000  Level FlightAware
01:23AM 46.5760 -67.9650 63° Northeast 525 604 37,000  Level FlightAware
01:24AM 46.6090 -67.8680 64° Northeast 525 604 37,000  Level FlightAware
01:24AM 46.6430 -67.7720 63° Northeast 525 604 37,000  Level FlightAware
01:25AM 46.6770 -67.6750 63° Northeast 525 604 37,000  Level FlightAware
01:25AM 46.7110 -67.5760 63° Northeast 525 604 37,000  Level FlightAware
01:26AM 46.7450 -67.4800 63° Northeast 525 604 37,000  Level FlightAware
01:27AM 46.7790 -67.3830 63° Northeast 525 604 37,000  Level FlightAware
01:27AM 46.8130 -67.2860 63° Northeast 525 604 37,000  Level FlightAware
01:28AM 46.9000 -66.9333 63° Northeast 530 610 37,000  Level Gander Center
01:29AM 47.0000 -66.7500 51° Northeast 520 598 37,000  Level Moncton Center
01:30AM 47.0833 -66.6167 47° Northeast 520 598 37,000  Level Moncton Center
01:31AM 47.1667 -66.4333 56° Northeast 520 598 37,000  Level Moncton Center
01:32AM 47.2500 -66.2500 56° Northeast 520 598 37,000  Level Moncton Center
01:33AM 47.3333 -66.0833 54° Northeast 520 598 37,000  Level Moncton Center
01:34AM 47.4167 -65.9000 56° Northeast 530 610 37,000  Level Moncton Center
01:35AM 47.5000 -65.7167 56° Northeast 530 610 37,000  Level Moncton Center
01:36AM 47.6000 -65.5333 51° Northeast 530 610 37,000  Level Moncton Center
01:37AM 47.6833 -65.3667 53° Northeast 530 610 37,000  Level Moncton Center
01:38AM 47.7667 -65.2000 53° Northeast 530 610 37,000  Level Moncton Center
01:39AM 47.8500 -65.0000 58° Northeast 530 610 37,000  Level Moncton Center
01:40AM 47.9333 -64.8167 56° Northeast 540 621 37,000  Level Moncton Center
01:41AM 48.0167 -64.6167 58° Northeast 530 610 37,000  Level Moncton Center
01:42AM 48.1000 -64.4500 53° Northeast 540 621 37,000  Level Moncton Center
01:43AM 48.1833 -64.2500 58° Northeast 540 621 37,000  Level Moncton Center
01:44AM 48.2667 -64.0667 56° Northeast 540 621 37,000  Level Moncton Center
01:45AM 48.3500 -63.8667 58° Northeast 540 621 37,000  Level Moncton Center
01:46AM 48.4333 -63.6833 56° Northeast 540 621 37,000  Level Moncton Center
01:47AM 48.5333 -63.5167 48° Northeast 540 621 37,000  Level Moncton Center
01:48AM 48.6000 -63.3167 63° Northeast 530 610 37,000  Level Moncton Center
01:49AM 48.6833 -63.1500 53° Northeast 540 621 37,000  Level Moncton Center
01:50AM 48.7833 -62.9500 53° Northeast 540 621 37,000  Level Moncton Center
01:51AM 48.8667 -62.7500 58° Northeast 540 621 37,000  Level Moncton Center
01:52AM 48.9333 -62.5667 61° Northeast 540 621 37,000  Level Moncton Center
01:53AM 49.0000 -62.3833 61° Northeast 530 610 37,000  Level Moncton Center
01:54AM 49.1000 -62.1667 55° Northeast 550 633 37,000  Level Moncton Center
01:55AM 49.1833 -61.9833 55° Northeast 540 621 37,000  Level Moncton Center
01:56AM 49.2833 -61.7833 52° Northeast 540 621 37,000  Level Moncton Center
01:57AM 49.3333 -61.6000 67° East 530 610 37,000  Level Moncton Center
01:58AM 49.4167 -61.3833 59° Northeast 540 621 37,000  Level Moncton Center
01:59AM 49.5000 -61.2000 55° Northeast 540 621 37,000  Level Moncton Center
02:00AM 49.5833 -61.0167 55° Northeast 540 621 37,000  Level Moncton Center
02:01AM 49.6500 -60.8000 65° Northeast 540 621 37,000  Level Moncton Center
02:02AM 49.7333 -60.6167 55° Northeast 540 621 37,000  Level Moncton Center
02:03AM 49.8000 -60.4000 64° Northeast 540 621 37,000  Level Moncton Center
02:04AM 49.8833 -60.1833 59° Northeast 550 633 37,000  Level Moncton Center
02:05AM 49.9833 -59.9667 54° Northeast 550 633 37,000  Level Moncton Center
02:06AM 50.0500 -59.7833 60° Northeast 560 644 37,000  Level Moncton Center
02:07AM 50.1333 -59.5833 57° Northeast 560 644 37,000  Level Moncton Center
02:14AM 50.6833 -58.0833 61° Northeast 530 610 37,000  Level Gander Center
02:15AM 50.7167 -57.9333 71° East 540 621 37,000  Level Moncton Center
02:16AM 50.8000 -57.7500 54° Northeast 540 621 37,000  Level Moncton Center
02:17AM 50.8667 -57.5167 66° East 540 621 37,000  Level Moncton Center
02:18AM 50.9333 -57.3333 60° Northeast 540 621 37,000  Level Moncton Center
02:19AM 51.0000 -57.1000 66° East 540 621 37,000  Level Moncton Center
02:20AM 51.0833 -56.9000 56° Northeast 540 621 37,000  Level Moncton Center
02:21AM 51.1667 -56.6833 58° Northeast 540 621 37,000  Level Moncton Center
02:22AM 51.2333 -56.4833 62° Northeast 540 621 37,000  Level Moncton Center
02:23AM 51.3000 -56.2500 65° Northeast 550 633 37,000  Level Moncton Center
02:24AM 51.3833 -56.0500 56° Northeast 540 621 37,000  Level Moncton Center
02:25AM 51.4500 -55.8167 65° Northeast 550 633 37,000  Level Moncton Center
02:26AM 51.5167 -55.6000 64° Northeast 550 633 37,000  Level Moncton Center
02:27AM 51.5833 -55.3833 64° Northeast 550 633 37,000  Level Moncton Center
02:28AM 51.6500 -55.1667 64° Northeast 540 621 37,000  Level Moncton Center
02:29AM 51.7167 -54.9500 64° Northeast 530 610 37,000  Level Moncton Center
02:30AM 51.8000 -54.7333 58° Northeast 540 621 37,000  Level Gander Center
02:31AM 51.8667 -54.5000 65° Northeast 540 621 37,000  Level Gander Center
02:32AM 51.9167 -54.2833 69° East 540 621 37,000  Level Gander Center
02:33AM 51.9833 -54.0500 65° Northeast 530 610 37,000  Level Gander Center
02:34AM 52.0667 -53.8500 56° Northeast 530 610 37,000  Level Gander Center
02:35AM 52.1167 -53.6500 68° East 530 610 37,000  Level Gander Center
02:36AM 52.1833 -53.4167 65° Northeast 530 610 37,000  Level Gander Center
02:37AM 52.2333 -53.1833 71° East 540 621 37,000  Level Gander Center
02:38AM 52.3000 -52.9500 65° Northeast 530 610 37,000  Level Gander Center
02:39AM 52.3500 -52.7000 72° East 540 621 37,000  Level Gander Center
02:40AM 52.4167 -52.4667 65° Northeast 550 633 37,000  Level Gander Center
02:41AM 52.4667 -52.2667 68° East 530 610 37,000  Level Gander Center
02:42AM 52.5333 -52.0000 68° East 540 621 37,000  Level Gander Center
02:43AM 52.5833 -51.8000 68° East 530 610 37,000  Level Gander Center
02:45AM 52.6833 -51.3333 70° East 530 610 37,000  Level Gander Center
02:46AM 52.7167 -51.1500 73° East 530 610 37,000  Level Gander Center
02:47AM 52.7667 -50.9500 67° East 530 610 37,000  Level Gander Center
02:48AM 52.8167 -50.7167 70° East 520 598 37,000  Level Gander Center
02:49AM 52.8667 -50.4833 70° East 520 598 37,000  Level Gander Center
02:50AM 52.9167 -50.2500 70° East 520 598 37,000  Level Gander Center
02:51AM 52.9667 -50.0333 69° East 540 621 37,000  Level Gander Center
02:52AM 53.0000 -49.8000 77° East 530 610 37,000  Level Gander Center
02:54AM 53.0141 -49.3911 87° East  Level FlightAware Approximate
03:01AM 53.0592 -47.7691 87° East  Level FlightAware Approximate
03:02AM 53.0642 -47.5371 88° East  Level FlightAware Approximate
03:03AM 53.0686 -47.3051 88° East  Level FlightAware Approximate
03:04AM 53.0727 -47.0731 88° East  Level FlightAware Approximate
03:05AM 53.0762 -46.8410 88° East  Level FlightAware Approximate
03:06AM 53.0794 -46.6088 89° East  Level FlightAware Approximate
03:07AM 53.0821 -46.3767 89° East  Level FlightAware Approximate
03:08AM 53.0846 -46.1445 89° East  Level FlightAware Approximate
03:09AM 53.0872 -45.9123 89° East  Level FlightAware Approximate
03:10AM 53.0893 -45.6801 89° East  Level FlightAware Approximate
03:11AM 53.0910 -45.4478 89° East  Level FlightAware Approximate
03:12AM 53.0922 -45.2156 89° East  Level FlightAware Approximate
03:13AM 53.0929 -44.9833 90° East  Level FlightAware Approximate
03:14AM 53.0932 -44.7510 90° East  Level FlightAware Approximate
03:15AM 53.0931 -44.5188 90° East  Level FlightAware Approximate
03:16AM 53.0925 -44.2865 90° East  Level FlightAware Approximate
03:17AM 53.0914 -44.0542 90° East  Level FlightAware Approximate
03:18AM 53.0899 -43.8220 91° East  Level FlightAware Approximate
03:19AM 53.0880 -43.5898 91° East  Level FlightAware Approximate
03:20AM 53.0855 -43.3576 91° East  Level FlightAware Approximate
03:21AM 53.0827 -43.1254 91° East  Level FlightAware Approximate
03:22AM 53.0793 -42.8933 91° East  Level FlightAware Approximate
03:23AM 53.0756 -42.6612 91° East  Level FlightAware Approximate
03:24AM 53.0714 -42.4291 92° East  Level FlightAware Approximate
03:25AM 53.0667 -42.1971 92° East  Level FlightAware Approximate
03:26AM 53.0616 -41.9651 92° East  Level FlightAware Approximate
03:27AM 53.0560 -41.7332 92° East  Level FlightAware Approximate
03:28AM 53.0500 -41.5014 92° East  Level FlightAware Approximate
03:29AM 53.0435 -41.2696 93° East  Level FlightAware Approximate
03:30AM 53.0366 -41.0379 93° East  Level FlightAware Approximate
03:31AM 53.0292 -40.8063 93° East  Level FlightAware Approximate
03:32AM 53.0214 -40.5748 93° East  Level FlightAware Approximate
03:33AM 53.0131 -40.3433 93° East  Level FlightAware Approximate
03:34AM 53.0044 -40.1119 93° East  Level FlightAware Approximate
03:35AM 53.0050 -39.8807 86° East  Level FlightAware Approximate
03:36AM 53.0142 -39.6494 86° East  Level FlightAware Approximate
03:37AM 53.0230 -39.4179 86° East  Level FlightAware Approximate
03:38AM 53.0314 -39.1865 86° East  Level FlightAware Approximate
03:39AM 53.0393 -38.9549 87° East  Level FlightAware Approximate
03:40AM 53.0468 -38.7232 87° East  Level FlightAware Approximate
03:41AM 53.0538 -38.4914 87° East  Level FlightAware Approximate
03:42AM 53.0604 -38.2596 87° East  Level FlightAware Approximate
03:43AM 53.0665 -38.0277 87° East  Level FlightAware Approximate
03:44AM 53.0722 -37.7958 88° East  Level FlightAware Approximate
03:45AM 53.0774 -37.5638 88° East  Level FlightAware Approximate
03:46AM 53.0822 -37.3317 88° East  Level FlightAware Approximate
03:47AM 53.0865 -37.0996 88° East  Level FlightAware Approximate
03:48AM 53.0903 -36.8674 88° East  Level FlightAware Approximate
03:49AM 53.0937 -36.6352 89° East  Level FlightAware Approximate
03:50AM 53.0967 -36.4030 89° East  Level FlightAware Approximate
03:51AM 53.0992 -36.1707 89° East  Level FlightAware Approximate
03:52AM 53.1012 -35.9385 89° East  Level FlightAware Approximate
03:53AM 53.1029 -35.7062 89° East  Level FlightAware Approximate
03:54AM 53.1040 -35.4738 89° East  Level FlightAware Approximate
03:55AM 53.1047 -35.2415 90° East  Level FlightAware Approximate
03:56AM 53.1049 -35.0092 90° East  Level FlightAware Approximate
03:57AM 53.1047 -34.7769 90° East  Level FlightAware Approximate
03:58AM 53.1041 -34.5445 90° East  Level FlightAware Approximate
03:59AM 53.1030 -34.3122 90° East  Level FlightAware Approximate
04:00AM 53.1014 -34.0799 91° East  Level FlightAware Approximate
04:01AM 53.0994 -33.8476 91° East  Level FlightAware Approximate
04:02AM 53.0969 -33.6153 91° East  Level FlightAware Approximate
04:03AM 53.0940 -33.3831 91° East  Level FlightAware Approximate
04:04AM 53.0906 -33.1509 91° East  Level FlightAware Approximate
04:05AM 53.0868 -32.9188 91° East  Level FlightAware Approximate
04:06AM 53.0825 -32.6866 92° East  Level FlightAware Approximate
04:07AM 53.0778 -32.4546 92° East  Level FlightAware Approximate
04:08AM 53.0726 -32.2225 92° East  Level FlightAware Approximate
04:09AM 53.0670 -31.9906 92° East  Level FlightAware Approximate
04:10AM 53.0609 -31.7587 92° East  Level FlightAware Approximate
04:11AM 53.0544 -31.5269 93° East  Level FlightAware Approximate
04:12AM 53.0474 -31.2951 93° East  Level FlightAware Approximate
04:13AM 53.0399 -31.0634 93° East  Level FlightAware Approximate
04:14AM 53.0321 -30.8319 93° East  Level FlightAware Approximate
04:15AM 53.0237 -30.6003 93° East  Level FlightAware Approximate
04:16AM 53.0149 -30.3689 94° East  Level FlightAware Approximate
04:17AM 53.0057 -30.1376 94° East  Level FlightAware Approximate
04:18AM 53.0035 -29.9063 86° East  Level FlightAware Approximate
04:19AM 53.0119 -29.6749 86° East  Level FlightAware Approximate
04:20AM 53.0199 -29.4435 87° East  Level FlightAware Approximate
04:21AM 53.0273 -29.2119 87° East  Level FlightAware Approximate
04:22AM 53.0344 -28.9803 87° East  Level FlightAware Approximate
04:23AM 53.0410 -28.7486 87° East  Level FlightAware Approximate
04:24AM 53.0471 -28.5168 87° East  Level FlightAware Approximate
04:25AM 53.0528 -28.2849 88° East  Level FlightAware Approximate
04:26AM 53.0580 -28.0530 88° East  Level FlightAware Approximate
04:27AM 53.0628 -27.8211 88° East  Level FlightAware Approximate
04:28AM 53.0672 -27.5891 88° East  Level FlightAware Approximate
04:29AM 53.0710 -27.3570 88° East  Level FlightAware Approximate
04:30AM 53.0745 -27.1249 88° East  Level FlightAware Approximate
04:31AM 53.0774 -26.8928 89° East  Level FlightAware Approximate
04:32AM 53.0800 -26.6606 89° East  Level FlightAware Approximate
04:33AM 53.0821 -26.4284 89° East  Level FlightAware Approximate
04:34AM 53.0840 -26.1963 89° East  Level FlightAware Approximate
04:35AM 53.0867 -25.9641 89° East  Level FlightAware Approximate
04:36AM 53.0889 -25.7318 89° East  Level FlightAware Approximate
04:37AM 53.0906 -25.4996 89° East  Level FlightAware Approximate
04:38AM 53.0919 -25.2674 89° East  Level FlightAware Approximate
04:39AM 53.0928 -25.0351 90° East  Level FlightAware Approximate
04:40AM 53.0932 -24.8028 90° East  Level FlightAware Approximate
04:41AM 53.0931 -24.5706 90° East  Level FlightAware Approximate
04:42AM 53.0926 -24.3383 90° East  Level FlightAware Approximate
04:43AM 53.0917 -24.1060 90° East  Level FlightAware Approximate
04:44AM 53.0903 -23.8738 90° East  Level FlightAware Approximate
04:45AM 53.0884 -23.6416 91° East  Level FlightAware Approximate
04:46AM 53.0861 -23.4093 91° East  Level FlightAware Approximate
04:47AM 53.0833 -23.1772 91° East  Level FlightAware Approximate
04:48AM 53.0801 -22.9450 91° East  Level FlightAware Approximate
04:49AM 53.0765 -22.7129 91° East  Level FlightAware Approximate
04:50AM 53.0723 -22.4808 92° East  Level FlightAware Approximate
04:51AM 53.0678 -22.2488 92° East  Level FlightAware Approximate
04:52AM 53.0627 -22.0168 92° East  Level FlightAware Approximate
04:53AM 53.0573 -21.7849 92° East  Level FlightAware Approximate
04:54AM 53.0513 -21.5531 92° East  Level FlightAware Approximate
04:55AM 53.0450 -21.3213 93° East  Level FlightAware Approximate
04:56AM 53.0382 -21.0896 93° East  Level FlightAware Approximate
04:57AM 53.0309 -20.8579 93° East  Level FlightAware Approximate
04:58AM 53.0232 -20.6264 93° East  Level FlightAware Approximate
04:59AM 53.0150 -20.3949 93° East  Level FlightAware Approximate
05:00AM 53.0064 -20.1635 93° East  Level FlightAware Approximate
05:01AM 52.9998 -19.9321 90° East  Level FlightAware Approximate
05:02AM 52.9989 -19.7003 90° East  Level FlightAware Approximate
05:03AM 52.9976 -19.4685 90° East  Level FlightAware Approximate
05:04AM 52.9958 -19.2368 91° East  Level FlightAware Approximate
05:05AM 52.9935 -19.0051 91° East  Level FlightAware Approximate
05:06AM 52.9908 -18.7734 91° East  Level FlightAware Approximate
05:07AM 52.9877 -18.5418 91° East  Level FlightAware Approximate
05:08AM 52.9841 -18.3102 91° East  Level FlightAware Approximate
05:09AM 52.9800 -18.0786 92° East  Level FlightAware Approximate
05:10AM 52.9756 -17.8470 92° East  Level FlightAware Approximate
05:11AM 52.9706 -17.6156 92° East  Level FlightAware Approximate
05:12AM 52.9652 -17.3841 92° East  Level FlightAware Approximate
05:13AM 52.9594 -17.1528 92° East  Level FlightAware Approximate
05:14AM 52.9531 -16.9215 92° East  Level FlightAware Approximate
05:15AM 52.9464 -16.6902 93° East  Level FlightAware Approximate
05:16AM 52.9392 -16.4591 93° East  Level FlightAware Approximate
05:17AM 52.9315 -16.2280 93° East  Level FlightAware Approximate
05:18AM 52.9234 -15.9970 93° East  Level FlightAware Approximate
05:19AM 52.9149 -15.7661 93° East  Level FlightAware Approximate
05:20AM 52.9059 -15.5353 94° East  Level FlightAware Approximate
05:21AM 52.8965 -15.3046 94° East  Level FlightAware Approximate
05:22AM 52.8866 -15.0740 94° East  Level FlightAware Approximate
05:23AM 52.8769 -14.8434 94° East  Level FlightAware Approximate
05:24AM 52.8670 -14.6129 94° East  Level FlightAware Approximate
05:25AM 52.8566 -14.3825 94° East  Level FlightAware Approximate
05:26AM 52.8458 -14.1522 94° East  Level FlightAware Approximate
05:27AM 52.8346 -13.9221 95° East  Level FlightAware Approximate
05:28AM 52.8229 -13.6920 95° East  Level FlightAware Approximate
05:29AM 52.8108 -13.4621 95° East  Level FlightAware Approximate
05:29AM 52.8820 -13.1850 95° East 520 598 37,000  Level FlightAware
05:30AM 52.7982 -13.2323 95° East  Level FlightAware Approximate
05:30AM 52.8720 -13.0520 97° East 520 598 37,000  Level FlightAware
05:30AM 52.8620 -12.9070 96° East 522 601 37,000  Level FlightAware
05:31AM 52.8470 -12.7130 97° East 522 601 37,000  Level FlightAware
05:32AM 52.8370 -12.5880 97° East 519 597 37,000  Level FlightAware
05:32AM 52.8230 -12.4110 97° East 518 596 37,000  Level FlightAware
05:33AM 52.8110 -12.2580 97° East 518 596 37,000  Level FlightAware
05:34AM 52.7960 -12.0780 98° East 517 595 37,000  Level FlightAware
05:35AM 52.7830 -11.9160 97° East 516 594 37,000  Level FlightAware
05:35AM 52.7710 -11.7790 98° East 517 595 37,000  Level FlightAware
05:36AM 52.7610 -11.6640 98° East 518 596 37,000  Level FlightAware
05:36AM 52.7490 -11.5210 98° East 516 594 37,000  Level FlightAware
05:37AM 52.7370 -11.3830 98° East 518 596 37,000  Level FlightAware
05:37AM 52.7250 -11.2460 98° East 518 596 37,000  Level FlightAware
05:38AM 52.7120 -11.1030 98° East 518 596 37,000  Level FlightAware
05:39AM 52.7000 -10.9710 98° East 519 597 37,000  Level FlightAware
05:39AM 52.6860 -10.8270 99° East 520 598 37,000  Level FlightAware
05:39AM 52.6810 -10.7680 98° East 521 600 37,000  Level FlightAware
05:41AM 52.6570 -10.5180 99° East 521 600 37,000  Level FlightAware
05:41AM 52.6440 -10.3840 99° East 521 600 37,000  Level FlightAware
05:42AM 52.6310 -10.2480 99° East 520 598 37,000  Level FlightAware
05:42AM 52.6260 -10.1980 99° East 521 600 37,000  Level FlightAware
05:43AM 52.6040 -9.9780 99° East 523 602 37,000  Level FlightAware
05:43AM 52.5900 -9.8400 99° East 523 602 37,000  Level FlightAware
05:44AM 52.5770 -9.7200 100° East 523 602 37,000  Level FlightAware
05:45AM 52.5620 -9.5680 99° East 522 601 37,000  Level FlightAware
05:45AM 52.5470 -9.4320 100° East 522 601 37,000  Level FlightAware
05:46AM 52.5320 -9.2910 100° East 519 597 37,000  Level FlightAware
05:46AM 52.5200 -9.1740 100° East 519 597 37,000  Level FlightAware
05:47AM 52.5050 -9.0390 100° East 519 597 37,000  Level FlightAware
05:47AM 52.4890 -8.8960 100° East 520 598 37,000  Level FlightAware
05:48AM 52.4737 -8.7528 100° East 1 1 37,000  Level FlightAware UK
05:48AM 52.4730 -8.7460 100° East 521 600 37,000  Level FlightAware
05:49AM 52.4580 -8.6200 101° East 521 600 37,000  Level FlightAware
05:49AM 52.4430 -8.4870 100° East 523 602 37,000  Level FlightAware
05:50AM 52.4270 -8.3490 101° East 524 603 37,000  Level FlightAware
05:50AM 52.4120 -8.2160 100° East 524 603 37,000  Level FlightAware
05:51AM 52.3960 -8.0790 101° East 525 604 37,000  Level FlightAware
05:51AM 52.3820 -7.9590 101° East 526 605 37,000  Level FlightAware
05:52AM 52.3650 -7.8210 101° East 528 608 37,000  Level FlightAware
05:53AM 52.3500 -7.6950 101° East 529 609 37,000  Level FlightAware
05:53AM 52.3483 -7.6775 101° East 1 1 37,000 -1,140 Level FlightAware UK
05:53AM 52.3337 -7.5606 101° East 1 1 36,400 -1,080 Descending FlightAware UK
05:53AM 52.3320 -7.5520 101° East 528 608 36,400 -960 Level FlightAware
05:54AM 52.3160 -7.4150 101° East 524 603 35,800 -1,200 Descending FlightAware
05:54AM 52.2990 -7.2850 102° East 522 601 35,100 -1,440 Descending FlightAware
05:55AM 52.2812 -7.1426 102° East 486 559 34,200 -1,320 Descending FlightAware UK
05:55AM 52.2810 -7.1440 102° East 523 602 34,300 -1,200 Climbing FlightAware
05:56AM 52.2650 -7.0170 102° East 525 604 33,500 -1,200 Descending FlightAware
05:56AM 52.2490 -6.8860 101° East 525 604 33,000 -480 Descending FlightAware
05:57AM 52.2320 -6.7550 102° East 526 605 33,000  Level FlightAware
05:57AM 52.2120 -6.6060 102° East 528 608 33,000  Level FlightAware
05:58AM 52.1940 -6.4720 102° East 526 605 33,000  Level FlightAware
05:58AM 52.1750 -6.3280 102° East 530 610 33,000  Level FlightAware
05:59AM 52.1580 -6.1970 102° East 535 616 33,000  Level FlightAware
05:59AM 52.1565 -6.1887 102° East 482 555 33,000  Level FlightAware UK
06:00AM 52.1406 -6.0704 102° East 490 564 33,000  Level FlightAware UK
06:00AM 52.1390 -6.0640 102° East 537 618 33,000  Level FlightAware
06:00AM 52.1170 -5.9040 103° East 537 618 33,000  Level FlightAware
06:01AM 52.0950 -5.7830 106° East 518 596 33,000  Level FlightAware
06:01AM 52.0510 -5.6720 123° Southeast 471 542 33,000  Level FlightAware
06:02AM 52.0010 -5.5740 130° Southeast 457 526 33,000  Level FlightAware
06:03AM 51.9590 -5.4910 129° Southeast 455 524 33,000  Level FlightAware
06:03AM 51.9100 -5.3980 130° Southeast 455 524 33,000  Level FlightAware
06:04AM 51.8630 -5.3060 130° Southeast 454 522 33,000  Level FlightAware
06:04AM 51.8150 -5.2080 128° Southeast 462 532 33,000  Level FlightAware
06:05AM 51.7880 -5.1040 113° Southeast 475 547 33,000  Level FlightAware
06:05AM 51.7750 -4.9790 99° East 477 549 33,000  Level FlightAware
06:06AM 51.7620 -4.8510 99° East 479 551 33,000  Level FlightAware
06:07AM 51.7480 -4.7230 100° East 480 552 33,000  Level FlightAware
06:07AM 51.7380 -4.6210 99° East 479 551 33,000  Level FlightAware
06:08AM 51.7230 -4.4850 100° East 481 554 33,000  Level FlightAware
06:08AM 51.7102 -4.3648 100° East 430 495 33,000  Level FlightAware UK
06:08AM 51.7090 -4.3580 100° East 482 555 33,000  Level FlightAware
06:09AM 51.6964 -4.2378 100° East 430 495 33,000  Level FlightAware UK
06:09AM 51.6960 -4.2390 100° East 482 555 33,000  Level FlightAware
06:09AM 51.6846 -4.1311 100° East 430 495 33,000  Level FlightAware UK
06:10AM 51.6840 -4.1220 100° East 483 556 33,000  Level FlightAware
06:10AM 51.6710 -4.0080 100° East 484 557 33,000  Level FlightAware
06:11AM 51.6560 -3.8770 100° East 486 559 33,000 -180 Level FlightAware
06:11AM 51.6410 -3.7460 100° East 487 560 32,800 -780 Descending FlightAware
06:12AM 51.6271 -3.6196 100° East 426 490 32,100 -1,200 Descending FlightAware UK
06:12AM 51.6270 -3.6220 100° East 481 554 32,100 -1,140 Level FlightAware
06:12AM 51.6120 -3.4880 100° East 475 547 31,400 -1,260 Descending FlightAware
06:13AM 51.5990 -3.3780 100° East 471 542 30,700 -1,440 Descending FlightAware
06:13AM 51.5982 -3.3702 100° East 416 479 30,600 -1,320 Descending FlightAware UK
06:14AM 51.5860 -3.2669 100° East 412 474 30,000 -1,080 Descending FlightAware UK
06:14AM 51.5850 -3.2550 100° East 466 536 30,000 -1,080 Level FlightAware
06:14AM 51.5700 -3.1340 101° East 459 528 29,300 -1,440 Descending FlightAware
06:15AM 51.5560 -3.0170 101° East 452 520 28,300 -1,740 Descending FlightAware
06:15AM 51.5430 -2.9120 101° East 445 512 27,400 -1,560 Descending FlightAware
06:16AM 51.5290 -2.7900 100° East 438 504 26,500 -1,560 Descending FlightAware
06:17AM 51.5150 -2.6800 102° East 435 501 25,500 -1,680 Descending FlightAware
06:17AM 51.5020 -2.5780 102° East 428 493 24,600 -1,800 Descending FlightAware
06:17AM 51.4951 -2.5186 101° East 426 490 24,000 -1,740 Descending FlightAware ADS-B
06:18AM 51.4834 -2.4257 101° East 422 486 23,200 -1,560 Descending FlightAware ADS-B
06:18AM 51.4710 -2.3272 101° East 416 479 22,400 -1,620 Descending FlightAware ADS-B
06:19AM 51.4593 -2.2356 102° East 410 472 21,500 -1,920 Descending FlightAware ADS-B
06:19AM 51.4478 -2.1455 102° East 403 464 20,500 -2,040 Descending FlightAware ADS-B
06:20AM 51.4366 -2.0587 102° East 398 458 19,500 -2,220 Descending FlightAware ADS-B
06:21AM 51.4250 -1.9688 102° East 393 452 18,300 -2,160 Descending FlightAware ADS-B
06:21AM 51.4136 -1.8816 102° East 390 449 17,300 -1,980 Descending FlightAware ADS-B
06:22AM 51.4016 -1.7909 102° East 381 438 16,200 -1,920 Descending FlightAware ADS-B
06:22AM 51.3905 -1.7062 102° East 371 427 15,300 -1,980 Descending FlightAware ADS-B
06:23AM 51.3799 -1.6260 102° East 328 377 14,200 -1,860 Descending FlightAware UK
06:23AM 51.3776 -1.6097 102° East 362 417 14,200 -420 Level FlightAware ADS-B
06:23AM 51.3683 -1.5396 102° East 362 417 14,000 -240 Descending FlightAware ADS-B
06:24AM 51.3565 -1.4603 103° East 360 414 14,000  Level FlightAware ADS-B
06:24AM 51.3448 -1.3823 103° East 360 414 14,000  Level FlightAware ADS-B
06:25AM 51.3331 -1.3041 103° East 362 417 14,000  Level FlightAware ADS-B
06:25AM 51.3210 -1.2238 104° East 360 414 14,000  Level FlightAware ADS-B
06:25AM 51.3162 -1.1868 102° East 362 417 14,000  Level FlightAware ADS-B
06:26AM 51.3132 -1.1430 96° East 378 435 14,000 -540 Level FlightAware ADS-B
06:26AM 51.3118 -1.0600 92° East 364 419 13,600 -1,140 Descending FlightAware ADS-B
06:27AM 51.3113 -0.9798 91° East 359 413 12,900 -1,320 Descending FlightAware ADS-B
06:27AM 51.3108 -0.8997 91° East 355 409 12,300 -1,020 Descending FlightAware ADS-B
06:28AM 51.3100 -0.8217 91° East 353 406 11,900 -840 Descending FlightAware ADS-B
06:28AM 51.3091 -0.7435 91° East 353 406 11,500 -900 Descending FlightAware ADS-B
06:29AM 51.3082 -0.6644 91° East 348 400 11,000 -540 Descending FlightAware ADS-B
06:29AM 51.3071 -0.5872 91° East 336 387 11,000  Level FlightAware ADS-B
06:30AM 51.3060 -0.5118 91° East 309 356 11,000  Level FlightAware ADS-B
06:30AM 51.3053 -0.4569 91° East 296 341 11,000  Level FlightAware ADS-B
06:30AM 51.3061 -0.4377 86° East 296 341 11,000  Level FlightAware ADS-B
06:31AM 51.3106 -0.3970 80° East 295 339 11,000  Level FlightAware ADS-B
06:31AM 51.3157 -0.3425 81° East 295 339 11,000  Level FlightAware ADS-B
06:31AM 51.3159 -0.3360 87° East 295 339 11,000  Level FlightAware ADS-B
06:31AM 51.3156 -0.3252 93° East 294 338 11,000  Level FlightAware ADS-B
06:31AM 51.3142 -0.3151 103° East 292 336 11,000  Level FlightAware ADS-B
06:31AM 51.3105 -0.3018 114° Southeast 289 333 11,000 -600 Level FlightAware ADS-B
06:31AM 51.3078 -0.2951 123° Southeast 286 329 10,900 -720 Descending FlightAware ADS-B
06:32AM 51.3035 -0.2871 131° Southeast 282 325 10,900 -780 Level FlightAware ADS-B
06:32AM 51.3007 -0.2830 137° Southeast 279 321 10,800 -1,200 Descending FlightAware ADS-B
06:32AM 51.2935 -0.2754 147° Southeast 272 313 10,700 -1,020 Descending FlightAware ADS-B
06:32AM 51.2878 -0.2715 157° South 266 306 10,600 -960 Descending FlightAware ADS-B
06:32AM 51.2787 -0.2685 168° South 256 295 10,500 -540 Descending FlightAware ADS-B
06:32AM 51.2736 -0.2682 178° South 250 288 10,500 -1,020 Level FlightAware ADS-B
06:32AM 51.2650 -0.2700 188° South 243 280 10,300 -1,140 Descending FlightAware ADS-B
06:32AM 51.2612 -0.2718 197° South 239 275 10,300 -1,140 Level FlightAware ADS-B
06:32AM 51.2537 -0.2773 204° Southwest 234 269 10,100 -900 Descending FlightAware ADS-B
06:32AM 51.2483 -0.2833 215° Southwest 228 262 10,100 -480 Level FlightAware ADS-B
06:33AM 51.2426 -0.2923 225° Southwest 222 255 10,000 -420 Descending FlightAware ADS-B
06:33AM 51.2380 -0.3030 235° Southwest 220 253 10,000  Level FlightAware ADS-B
06:33AM 51.2353 -0.3117 244° Southwest 218 251 10,000  Level FlightAware ADS-B
06:33AM 51.2342 -0.3165 250° West 217 250 10,000  Level FlightAware ADS-B
06:33AM 51.2328 -0.3251 255° West 217 250 10,000  Level FlightAware ADS-B
06:33AM 51.2322 -0.3359 265° West 217 250 10,000  Level FlightAware ADS-B
06:33AM 51.2326 -0.3464 273° West 218 251 10,000  Level FlightAware ADS-B
06:33AM 51.2333 -0.3518 282° West 219 252 10,000  Level FlightAware ADS-B
06:33AM 51.2349 -0.3602 287° West 221 254 10,000  Level FlightAware ADS-B
06:33AM 51.2365 -0.3658 294° West 222 255 10,000  Level FlightAware ADS-B
06:33AM 51.2387 -0.3721 299° West 225 259 10,000  Level FlightAware ADS-B
06:34AM 51.2432 -0.3813 308° West 229 264 10,000  Level FlightAware ADS-B
06:34AM 51.2488 -0.3893 318° Northwest 235 270 10,000  Level FlightAware ADS-B
06:34AM 51.2535 -0.3944 326° Northwest 238 274 10,000  Level FlightAware ADS-B
06:34AM 51.2629 -0.4040 327° Northwest 237 273 10,000  Level FlightAware ADS-B
06:34AM 51.2801 -0.4243 324° Northwest 237 273 10,000  Level FlightAware ADS-B
06:35AM 51.3057 -0.4503 328° Northwest 238 274 10,000  Level FlightAware ADS-B
06:35AM 51.3108 -0.4540 335° Northwest 242 278 10,000  Level FlightAware ADS-B
06:35AM 51.3151 -0.4560 344° North 249 287 10,000  Level FlightAware ADS-B
06:35AM 51.3202 -0.4572 352° North 255 293 10,000  Level FlightAware ADS-B
06:35AM 51.3283 -0.4572 360° North 260 299 10,000  Level FlightAware ADS-B
06:35AM 51.3351 -0.4557 North 266 306 10,000  Level FlightAware ADS-B
06:35AM 51.3402 -0.4538 13° North 271 312 10,000  Level FlightAware ADS-B
06:35AM 51.3442 -0.4516 19° North 273 314 10,000  Level FlightAware ADS-B
06:35AM 51.3488 -0.4482 25° Northeast 277 319 10,000  Level FlightAware ADS-B
06:35AM 51.3554 -0.4416 32° Northeast 282 325 10,000  Level FlightAware ADS-B
06:36AM 51.3626 -0.4306 44° Northeast 286 329 10,000  Level FlightAware ADS-B
06:36AM 51.3670 -0.4205 55° Northeast 290 334 10,000  Level FlightAware ADS-B
06:36AM 51.3690 -0.4140 64° Northeast 292 336 10,000  Level FlightAware ADS-B
06:36AM 51.3718 -0.4000 72° East 293 337 10,000  Level FlightAware ADS-B
06:36AM 51.3727 -0.3889 83° East 292 336 10,000  Level FlightAware ADS-B
06:36AM 51.3720 -0.3727 94° East 291 335 10,000  Level FlightAware ADS-B
06:36AM 51.3696 -0.3600 107° East 287 330 10,000  Level FlightAware ADS-B
06:36AM 51.3655 -0.3475 118° Southeast 283 326 10,000  Level FlightAware ADS-B
06:36AM 51.3597 -0.3365 130° Southeast 278 320 10,000  Level FlightAware ADS-B
06:36AM 51.3540 -0.3290 141° Southeast 271 312 10,000  Level FlightAware ADS-B
06:37AM 51.3479 -0.3229 148° Southeast 269 310 10,000 -480 Level FlightAware ADS-B
06:37AM 51.3402 -0.3156 150° Southeast 270 311 9,900 -1,080 Descending FlightAware ADS-B
06:37AM 51.3236 -0.2989 148° Southeast 268 308 9,600 -960 Descending FlightAware ADS-B
06:37AM 51.3064 -0.2822 149° Southeast 265 305 9,400 -1,020 Descending FlightAware ADS-B
06:37AM 51.2921 -0.2689 150° Southeast 260 299 9,100 -1,080 Descending FlightAware ADS-B
06:37AM 51.2884 -0.2666 158° South 256 295 9,100 -780 Level FlightAware ADS-B
06:38AM 51.2832 -0.2645 166° South 251 289 9,000 -480 Descending FlightAware ADS-B
06:38AM 51.2742 -0.2639 178° South 244 281 9,000  Level FlightAware ADS-B
06:38AM 51.2676 -0.2652 187° South 238 274 9,000  Level FlightAware ADS-B
06:38AM 51.2636 -0.2666 193° South 235 270 9,000  Level FlightAware ADS-B
06:38AM 51.2536 -0.2730 202° Southwest 226 260 9,000  Level FlightAware ADS-B
06:38AM 51.2501 -0.2764 211° Southwest 223 257 9,000  Level FlightAware ADS-B
06:38AM 51.2457 -0.2818 217° Southwest 221 254 9,000  Level FlightAware ADS-B
06:38AM 51.2429 -0.2860 224° Southwest 220 253 9,000  Level FlightAware ADS-B
06:38AM 51.2400 -0.2917 231° Southwest 220 253 9,000  Level FlightAware ADS-B
06:38AM 51.2363 -0.3033 243° Southwest 220 253 9,000  Level FlightAware ADS-B
06:39AM 51.2354 -0.3095 257° West 219 252 9,000  Level FlightAware ADS-B
06:39AM 51.2351 -0.3146 265° West 219 252 9,000  Level FlightAware ADS-B
06:39AM 51.2352 -0.3214 271° West 220 253 9,000  Level FlightAware ADS-B
06:39AM 51.2358 -0.3262 281° West 222 255 9,000  Level FlightAware ADS-B
06:39AM 51.2372 -0.3331 288° West 224 258 9,000  Level FlightAware ADS-B
06:39AM 51.2388 -0.3384 296° West 227 261 9,000  Level FlightAware ADS-B
06:39AM 51.2407 -0.3429 304° West 229 264 9,000  Level FlightAware ADS-B
06:39AM 51.2429 -0.3471 310° West 231 266 9,000  Level FlightAware ADS-B
06:39AM 51.2480 -0.3551 316° Northwest 235 270 9,000  Level FlightAware ADS-B
06:39AM 51.2565 -0.3668 319° Northwest 235 270 9,000 -480 Level FlightAware ADS-B
06:39AM 51.2691 -0.3848 318° Northwest 235 270 8,800 -780 Descending FlightAware ADS-B
06:40AM 51.2811 -0.4036 316° Northwest 231 266 8,600 -960 Descending FlightAware ADS-B
06:40AM 51.2930 -0.4224 315° West 230 265 8,300 -1,140 Descending FlightAware ADS-B
06:40AM 51.3015 -0.4360 315° West 230 265 8,100 -1,080 Descending FlightAware ADS-B
06:40AM 51.3063 -0.4428 319° Northwest 233 268 8,000 -1,020 Descending FlightAware ADS-B
06:40AM 51.3120 -0.4485 328° Northwest 237 273 7,900 -1,380 Descending FlightAware ADS-B
06:40AM 51.3150 -0.4506 337° Northwest 239 275 7,800 -1,740 Descending FlightAware ADS-B
06:41AM 51.3193 -0.4527 343° North 242 278 7,700 -780 Descending FlightAware ADS-B
06:41AM 51.3235 -0.4537 351° North 245 282 7,700 -780 Level FlightAware ADS-B
06:41AM 51.3273 -0.4540 357° North 247 284 7,600 -1,740 Descending FlightAware ADS-B
06:41AM 51.3308 -0.4536 North 250 288 7,500 -1,740 Descending FlightAware ADS-B
06:41AM 51.3359 -0.4521 11° North 254 292 7,400 -1,380 Descending FlightAware ADS-B
06:41AM 51.3412 -0.4491 19° North 259 298 7,300 -1,380 Descending FlightAware ADS-B
06:41AM 51.3455 -0.4456 27° Northeast 264 304 7,200 -1,500 Descending FlightAware ADS-B
06:41AM 51.3493 -0.4414 35° Northeast 267 307 7,100 -780 Descending FlightAware ADS-B
06:41AM 51.3535 -0.4352 43° Northeast 272 313 7,100 -900 Level FlightAware ADS-B
06:41AM 51.3563 -0.4299 50° Northeast 274 315 7,000 -1,020 Descending FlightAware ADS-B
06:41AM 51.3584 -0.4249 56° Northeast 275 316 7,000  Level FlightAware ADS-B
06:41AM 51.3612 -0.4162 63° Northeast 276 318 7,000  Level FlightAware ADS-B
06:41AM 51.3633 -0.4062 71° East 276 318 7,000  Level FlightAware ADS-B
06:41AM 51.3649 -0.3901 81° East 276 318 7,000  Level FlightAware ADS-B
06:42AM 51.3654 -0.3796 86° East 276 318 7,000 -600 Level FlightAware ADS-B
06:42AM 51.3665 -0.3467 87° East 275 316 6,800 -1,020 Descending FlightAware ADS-B
06:42AM 51.3676 -0.3158 87° East 276 318 6,500 -1,080 Descending FlightAware ADS-B
06:42AM 51.3686 -0.2899 86° East 275 316 6,300 -900 Descending FlightAware ADS-B
06:43AM 51.3699 -0.2601 86° East 272 313 6,100 -720 Descending FlightAware ADS-B
06:43AM 51.3708 -0.2378 86° East 269 310 6,000 -720 Descending FlightAware ADS-B
06:43AM 51.3721 -0.2068 86° East 265 305 5,800 -600 Descending FlightAware ADS-B
06:43AM 51.3733 -0.1773 86° East 263 303 5,700 -360 Descending FlightAware ADS-B
06:44AM 51.3750 -0.1412 86° East 260 299 5,600 -180 Descending FlightAware ADS-B
06:44AM 51.3764 -0.1083 86° East 261 300 5,600 -240 Level FlightAware ADS-B
06:44AM 51.3777 -0.0782 86° East 258 297 5,500 -420 Descending FlightAware ADS-B
06:44AM 51.3792 -0.0487 85° East 245 282 5,400 -300 Descending FlightAware ADS-B
06:44AM 51.3804 -0.0382 80° East 242 278 5,400  Level FlightAware ADS-B
06:45AM 51.3833 -0.0271 67° East 239 275 5,400  Level FlightAware ADS-B
06:45AM 51.3853 -0.0220 58° Northeast 237 273 5,400  Level FlightAware ADS-B
06:45AM 51.3895 -0.0147 48° Northeast 230 265 5,400  Level FlightAware ADS-B
06:45AM 51.3926 -0.0108 38° Northeast 225 259 5,400  Level FlightAware ADS-B
06:45AM 51.4005 -0.0052 24° Northeast 216 249 5,400 -360 Level FlightAware ADS-B
06:45AM 51.4091 -0.0028 10° North 209 241 5,300 -840 Descending FlightAware ADS-B
06:45AM 51.4219 -0.0010 North 207 238 5,100 -840 Descending FlightAware ADS-B
06:46AM 51.4373 0.0008 North 205 236 4,900 -840 Descending FlightAware ADS-B
06:46AM 51.4427 0.0001 355° North 200 230 4,800 -780 Descending FlightAware ADS-B
06:46AM 51.4507 -0.0054 337° Northwest 185 213 4,700 -720 Descending FlightAware ADS-B
06:46AM 51.4549 -0.0121 315° West 177 204 4,600 -600 Descending FlightAware ADS-B
06:46AM 51.4566 -0.0159 306° West 174 200 4,600 -780 Level FlightAware ADS-B
06:46AM 51.4585 -0.0207 302° West 173 199 4,500 -600 Descending FlightAware ADS-B
06:46AM 51.4648 -0.0385 300° West 173 199 4,400 -600 Descending FlightAware ADS-B
06:47AM 51.4708 -0.0553 300° West 171 197 4,200 -780 Descending FlightAware ADS-B
06:47AM 51.4742 -0.0650 299° West 170 196 4,100 -420 Descending FlightAware ADS-B
06:47AM 51.4761 -0.0720 293° West 167 192 4,100  Level FlightAware ADS-B
06:47AM 51.4772 -0.0791 284° West 165 190 4,100 -600 Level FlightAware ADS-B
06:47AM 51.4777 -0.0854 277° West 164 189 4,000 -480 Descending FlightAware ADS-B
06:47AM 51.4779 -0.0951 272° West 163 188 4,000 -240 Level FlightAware ADS-B
06:47AM 51.4780 -0.1149 270° West 165 190 3,900 -600 Descending FlightAware ADS-B
06:48AM 51.4781 -0.1334 271° West 163 188 3,700 -840 Descending FlightAware ADS-B
06:48AM 51.4782 -0.1517 271° West 163 188 3,500 -1,080 Descending FlightAware ADS-B
06:48AM 51.4782 -0.1755 270° West 162 186 3,100 -1,080 Descending FlightAware ADS-B
06:49AM 51.4782 -0.1943 270° West 160 184 2,900 -780 Descending FlightAware ADS-B
06:49AM 51.4781 -0.2119 269° West 150 173 2,700 -840 Descending FlightAware ADS-B
06:49AM 51.4781 -0.2454 270° West 150 173 2,300 -840 Descending FlightAware ADS-B
06:50AM 51.4780 -0.2858 270° West 170 196 1,800 -840 Descending FlightAware UK
06:50AM 51.4780 -0.2960 270° West 152 175 1,700 -780 Descending FlightAware
06:50AM 51.4780 -0.3160 270° West 154 177 1,400 -780 Descending FlightAware
06:51AM 51.4780 -0.3400 270° West 136 157 1,200 -720 Descending FlightAware
06:51AM 51.4780 -0.3650 270° West 136 157 900 -840 Descending FlightAware
06:51AM 51.4780 -0.3840 270° West 133 153 600 -780 Descending FlightAware
06:52AM 51.4780 -0.4050 270° West 138 159 400 -780 Descending FlightAware
06:52AM 51.4780 -0.4250 270° West 137 158 100 -900 Descending FlightAware
06:53AM 51.4780 -0.4580 270° West 136 157 -120 Descending FlightAware